Time;durP1;ratioP1;P1;durP2;ratioP2;P2;SDS_P1;SDS_P2;PMS_P1;PMS_P2;Temp;Humidity;BMP_temperature;BMP_pressure;BME280_temperature;BME280_humidity;BME280_pressure;Samples;Min_cycle;Max_cycle;Signal;HPM_P1;HPM_P2
2021/10/30 00:00:09;;;;;;;16.93;15.23;;;4.70;99.90;;;5.35;90.02;97476.91;5199717;28;20657;-63
2021/10/30 00:02:44;;;;;;;14.50;13.30;;;4.60;99.90;;;5.34;89.79;97476.78;5199618;28;20216;-63
2021/10/30 00:05:17;;;;;;;14.87;13.37;;;4.60;99.90;;;5.28;89.59;97478.91;5201431;28;20189;-63
2021/10/30 00:07:51;;;;;;;14.40;13.00;;;4.50;99.90;;;5.26;89.26;97480.44;5201322;28;20224;-63
2021/10/30 00:10:24;;;;;;;13.77;12.47;;;4.40;99.90;;;5.24;90.17;97487.94;5203121;28;20204;-63
2021/10/30 00:12:57;;;;;;;14.77;13.47;;;4.50;99.90;;;5.20;90.01;97479.22;5203119;28;20293;-62
2021/10/30 00:15:30;;;;;;;15.33;14.03;;;4.50;99.90;;;5.25;89.49;97484.63;5203031;28;20202;-62
2021/10/30 00:18:05;;;;;;;16.53;14.70;;;4.50;99.90;;;5.21;89.68;97477.59;5201534;28;20205;-63
2021/10/30 00:20:38;;;;;;;17.27;15.53;;;4.40;99.90;;;5.12;89.72;97479.44;5198505;28;20289;-62
2021/10/30 00:23:12;;;;;;;17.17;15.57;;;4.30;99.90;;;5.02;90.17;97471.97;5202205;28;20202;-63
2021/10/30 00:25:45;;;;;;;17.00;15.40;;;4.30;99.90;;;5.00;90.61;97470.97;5200468;28;20240;-63
2021/10/30 00:28:18;;;;;;;16.97;15.27;;;4.20;99.90;;;4.81;90.95;97472.19;5202004;28;20297;-63
2021/10/30 00:30:51;;;;;;;16.23;14.63;;;4.10;99.90;;;4.81;91.28;97474.72;5202654;28;20587;-62
2021/10/30 00:33:25;;;;;;;17.20;15.50;;;4.10;99.90;;;4.74;91.51;97472.50;5202452;28;20626;-63
2021/10/30 00:35:58;;;;;;;16.63;15.10;;;4.00;99.90;;;4.78;91.20;97471.06;5201367;28;20219;-63
2021/10/30 00:38:31;;;;;;;16.47;14.87;;;4.00;99.90;;;4.73;91.01;97465.69;5202188;28;20212;-63
2021/10/30 00:41:05;;;;;;;16.03;14.53;;;4.00;99.90;;;4.73;91.47;97460.63;5201847;28;20671;-63
2021/10/30 00:43:38;;;;;;;15.47;13.97;;;4.10;99.90;;;4.77;91.24;97456.66;5203650;28;20653;-63
2021/10/30 00:46:12;;;;;;;16.77;15.20;;;4.10;99.90;;;4.80;90.80;97467.88;5201987;28;20268;-61
2021/10/30 00:48:46;;;;;;;15.50;14.00;;;4.10;99.90;;;4.74;90.93;97464.91;5202439;28;20243;-63
2021/10/30 00:51:19;;;;;;;14.97;13.67;;;4.10;99.90;;;4.78;90.55;97463.47;5202336;28;20193;-63
2021/10/30 00:53:53;;;;;;;15.20;13.70;;;4.10;99.90;;;4.80;90.73;97457.75;5203217;28;20304;-62
2021/10/30 00:56:28;;;;;;;14.40;13.10;;;4.10;99.90;;;4.76;90.47;97450.72;5200047;28;20315;-63
2021/10/30 00:59:08;;;;;;;15.93;14.47;;;4.00;99.90;;;4.80;89.98;97452.69;5201932;28;20586;-63
2021/10/30 01:01:44;;;;;;;15.93;14.13;;;4.00;99.90;;;4.82;90.35;97451.16;5200472;28;20206;-62
2021/10/30 01:04:20;;;;;;;15.30;13.80;;;4.10;99.90;;;4.73;90.38;97445.44;5201862;28;20287;-63
2021/10/30 01:06:56;;;;;;;14.83;13.43;;;4.00;99.90;;;4.74;90.43;97442.13;5199826;28;20221;-63
2021/10/30 01:09:29;;;;;;;15.50;14.00;;;4.00;99.90;;;4.69;90.32;97448.50;5200501;28;20284;-61
2021/10/30 01:12:02;;;;;;;15.60;14.10;;;4.00;99.90;;;4.60;90.32;97441.13;5202916;28;20216;-63
2021/10/30 01:14:36;;;;;;;15.60;14.10;;;3.90;99.90;;;4.59;89.67;97435.97;5203028;28;20231;-62
2021/10/30 01:17:09;;;;;;;14.83;13.43;;;3.80;99.90;;;4.54;90.16;97432.19;5199634;28;20233;-63
2021/10/30 01:19:44;;;;;;;15.10;13.70;;;3.80;99.90;;;4.44;89.90;97426.47;5202602;28;20219;-63
2021/10/30 01:22:19;;;;;;;14.90;13.53;;;3.70;99.90;;;4.47;89.33;97431.75;5201953;28;20205;-64
2021/10/30 01:24:53;;;;;;;15.43;14.03;;;3.70;99.90;;;4.43;89.48;97427.22;5200191;28;20633;-63
2021/10/30 01:27:26;;;;;;;16.47;15.00;;;3.60;99.90;;;4.35;90.26;97419.84;5202488;28;20308;-63
2021/10/30 01:29:59;;;;;;;14.73;13.33;;;3.70;99.90;;;4.32;91.21;97414.56;5198743;28;20205;-62
2021/10/30 01:32:32;;;;;;;15.97;14.47;;;3.60;99.90;;;4.27;90.94;97416.78;5201759;28;20205;-61
2021/10/30 01:35:06;;;;;;;17.43;15.73;;;3.60;99.90;;;4.18;91.57;97405.97;5202354;28;20289;-62
2021/10/30 01:37:40;;;;;;;16.57;14.73;;;3.60;99.90;;;4.23;91.13;97409.72;5201226;28;20221;-62
2021/10/30 01:40:14;;;;;;;15.77;14.33;;;3.60;99.90;;;4.28;91.51;97401.69;5200318;28;20205;-62
2021/10/30 01:42:54;;;;;;;16.13;14.63;;;3.50;99.90;;;4.38;90.71;97399.81;5202010;28;20227;-61
2021/10/30 01:45:30;;;;;;;16.17;14.63;;;3.60;99.90;;;4.37;90.48;97396.44;5196781;28;20204;-60
2021/10/30 01:48:04;;;;;;;16.53;15.00;;;3.50;99.90;;;4.39;90.43;97392.38;5198647;28;20205;-63
2021/10/30 01:50:39;;;;;;;16.20;14.70;;;3.60;99.90;;;4.32;91.10;97390.16;5199066;28;20208;-62
2021/10/30 01:53:13;;;;;;;15.70;14.27;;;3.60;99.90;;;4.28;90.33;97396.63;5199720;28;20203;-63
2021/10/30 01:55:47;;;;;;;16.30;14.60;;;3.60;99.90;;;4.37;90.14;97393.88;5202715;28;20318;-63
2021/10/30 01:58:20;;;;;;;15.83;14.20;;;3.60;99.90;;;4.13;90.65;97392.97;5207728;28;20198;-63
2021/10/30 02:00:56;;;;;;;15.17;13.67;;;3.40;99.90;;;4.02;91.41;97394.72;5221893;22;20275;-59
2021/10/30 02:03:31;;;;;;;16.07;14.57;;;3.30;99.90;;;4.03;91.13;97393.06;5204534;28;20284;-61
2021/10/30 02:06:06;;;;;;;16.90;15.13;;;3.30;99.90;;;3.95;90.49;97387.44;5206808;28;20208;-61
2021/10/30 02:08:40;;;;;;;14.73;13.43;;;3.30;99.90;;;3.97;91.15;97377.44;5204369;28;20587;-60
2021/10/30 02:11:13;;;;;;;15.03;13.63;;;3.30;99.90;;;3.93;91.41;97368.75;5204826;28;20229;-60
2021/10/30 02:13:46;;;;;;;14.60;13.30;;;3.30;99.90;;;3.91;91.21;97370.28;5203152;28;20252;-60
2021/10/30 02:16:19;;;;;;;15.67;14.23;;;3.20;99.90;;;3.97;91.39;97360.63;5204500;28;20215;-60
2021/10/30 02:18:52;;;;;;;15.37;13.77;;;3.20;99.90;;;4.01;91.37;97361.75;5205719;28;21047;-61
2021/10/30 02:21:26;;;;;;;15.70;14.27;;;3.30;99.90;;;3.96;90.97;97356.34;5206031;28;20636;-60
2021/10/30 02:24:00;;;;;;;15.37;13.87;;;3.30;99.90;;;3.99;91.19;97359.09;5205215;28;20197;-60
2021/10/30 02:26:33;;;;;;;15.27;13.90;;;3.30;99.90;;;3.99;91.01;97358.22;5205730;28;20204;-59
2021/10/30 02:29:06;;;;;;;14.80;13.40;;;3.30;99.90;;;3.94;90.81;97345.22;5206469;28;20201;-61
2021/10/30 02:31:39;;;;;;;15.30;13.87;;;3.30;99.90;;;3.93;91.06;97340.06;5203211;28;20588;-60
2021/10/30 02:34:12;;;;;;;14.73;13.27;;;3.20;99.90;;;3.88;91.33;97342.25;5205494;28;20312;-60
2021/10/30 02:36:46;;;;;;;15.43;14.13;;;3.20;99.90;;;3.96;91.93;97338.63;5205068;28;20214;-61
2021/10/30 02:39:20;;;;;;;16.57;14.83;;;3.40;99.90;;;4.02;92.07;97331.50;5206491;28;20201;-61
2021/10/30 02:41:53;;;;;;;16.17;14.67;;;3.40;99.90;;;4.01;91.48;97321.28;5205639;28;20220;-61
2021/10/30 02:44:26;;;;;;;16.13;14.57;;;3.40;99.90;;;4.01;91.29;97317.09;5203640;28;20284;-61
2021/10/30 02:47:00;;;;;;;17.30;15.70;;;3.30;99.90;;;3.92;91.11;97313.00;5205184;28;20819;-61
2021/10/30 02:49:33;;;;;;;14.80;13.47;;;3.30;99.90;;;3.91;90.89;97314.66;5206117;28;20293;-61
2021/10/30 02:52:08;;;;;;;16.17;14.67;;;3.20;99.90;;;3.90;90.41;97307.84;5204160;28;20319;-61
2021/10/30 02:54:42;;;;;;;16.33;14.73;;;3.20;99.90;;;3.80;90.96;97305.41;5203616;28;20213;-61
2021/10/30 02:57:15;;;;;;;16.20;14.60;;;3.20;99.90;;;3.69;91.47;97296.16;5203853;28;20304;-61
2021/10/30 02:59:49;;;;;;;15.70;14.23;;;3.10;99.90;;;3.85;90.59;97301.56;5206039;28;20679;-61
2021/10/30 03:02:22;;;;;;;16.13;14.53;;;3.10;99.90;;;3.77;90.54;97301.00;5204239;28;20228;-61
2021/10/30 03:04:55;;;;;;;15.03;13.60;;;3.10;99.90;;;3.73;91.42;97303.22;5204350;28;20229;-60
2021/10/30 03:07:28;;;;;;;15.67;14.00;;;3.10;99.90;;;3.69;91.09;97302.13;5204743;28;20220;-61
2021/10/30 03:10:03;;;;;;;14.97;13.57;;;3.00;99.90;;;3.67;91.37;97302.75;5205452;28;20668;-60
2021/10/30 03:12:36;;;;;;;15.10;13.70;;;3.00;99.90;;;3.64;91.62;97294.97;5205034;28;20244;-60
2021/10/30 03:15:10;;;;;;;15.80;14.30;;;3.00;99.90;;;3.67;91.83;97296.06;5204848;28;20212;-60
2021/10/30 03:17:43;;;;;;;15.73;14.13;;;3.00;99.90;;;3.68;91.73;97294.41;5205146;28;20286;-61
2021/10/30 03:20:16;;;;;;;15.17;13.63;;;3.00;99.90;;;3.69;91.70;97288.56;5205052;28;20605;-61
2021/10/30 03:22:49;;;;;;;16.03;14.43;;;3.00;99.90;;;3.70;92.23;97290.34;5203233;28;20233;-59
2021/10/30 03:25:25;;;;;;;15.57;14.07;;;3.10;99.90;;;3.79;92.55;97283.44;5201076;28;20660;-59
2021/10/30 03:27:58;;;;;;;16.30;14.67;;;3.10;99.90;;;3.73;92.26;97280.47;5202007;28;20207;-60
2021/10/30 03:30:31;;;;;;;15.73;14.13;;;3.20;99.90;;;3.80;92.30;97280.13;5203597;28;20204;-61
2021/10/30 03:33:04;;;;;;;15.70;14.30;;;3.20;99.90;;;3.78;92.12;97281.69;5202848;28;20225;-59
2021/10/30 03:35:37;;;;;;;15.33;13.97;;;3.20;99.90;;;3.88;91.39;97278.19;5203140;28;20396;-61
2021/10/30 03:38:10;;;;;;;15.60;14.00;;;3.20;99.90;;;3.93;91.14;97281.94;5204793;28;20658;-60
2021/10/30 03:40:45;;;;;;;15.20;13.77;;;3.20;99.90;;;3.86;91.03;97267.94;5204064;28;20212;-61
2021/10/30 03:43:18;;;;;;;15.07;13.53;;;3.10;99.90;;;3.80;91.42;97280.13;5204533;28;20206;-61
2021/10/30 03:45:51;;;;;;;14.53;13.03;;;3.10;99.90;;;3.75;91.59;97282.34;5204605;28;20300;-58
2021/10/30 03:48:25;;;;;;;16.17;14.60;;;3.10;99.90;;;3.88;91.72;97271.47;5204641;28;20574;-61
2021/10/30 03:50:58;;;;;;;16.13;14.53;;;3.20;99.90;;;3.93;90.70;97276.88;5203821;28;20668;-58
2021/10/30 03:53:32;;;;;;;14.80;13.40;;;3.20;99.90;;;3.89;91.51;97283.31;5200298;28;20202;-61
2021/10/30 03:56:06;;;;;;;15.47;13.97;;;3.20;99.90;;;3.82;90.79;97289.59;5203391;28;20228;-60
2021/10/30 03:58:39;;;;;;;15.10;13.60;;;3.10;99.90;;;3.72;91.10;97281.22;5203830;28;20208;-59
2021/10/30 04:01:12;;;;;;;15.27;13.87;;;3.00;99.90;;;3.77;91.88;97285.84;5200974;28;20226;-60
2021/10/30 04:03:45;;;;;;;15.80;14.23;;;3.10;99.90;;;3.78;91.31;97279.16;5202080;28;20205;-59
2021/10/30 04:06:18;;;;;;;14.97;13.50;;;3.10;99.90;;;3.70;91.26;97280.25;5203936;28;20256;-59
2021/10/30 04:08:52;;;;;;;13.97;12.50;;;3.10;99.90;;;3.74;91.15;97262.88;5203599;28;20214;-60
2021/10/30 04:11:26;;;;;;;14.70;13.30;;;3.10;99.90;;;3.68;91.05;97253.97;5202002;28;20252;-60
2021/10/30 04:13:59;;;;;;;15.20;13.80;;;3.00;99.90;;;3.65;91.46;97253.75;5202700;28;20295;-59
2021/10/30 04:16:34;;;;;;;13.33;12.03;;;3.00;99.90;;;3.68;91.07;97249.78;5201490;28;20206;-60
2021/10/30 04:19:07;;;;;;;13.40;12.00;;;3.00;99.90;;;3.65;90.68;97248.69;5203716;28;20201;-61
2021/10/30 04:21:40;;;;;;;14.03;12.67;;;3.00;99.90;;;3.71;90.88;97251.66;5203374;28;20657;-60
2021/10/30 04:24:14;;;;;;;14.13;12.83;;;3.00;99.90;;;3.73;90.98;97245.09;5203151;28;20205;-61
2021/10/30 04:26:48;;;;;;;14.70;13.30;;;3.10;99.90;;;3.74;92.02;97235.06;5202728;28;20209;-59
2021/10/30 04:29:21;;;;;;;14.13;12.83;;;3.10;99.90;;;3.74;91.17;97224.97;5203827;28;20227;-61
2021/10/30 04:31:57;;;;;;;13.83;12.63;;;3.10;99.90;;;3.74;90.83;97231.66;5202498;28;20222;-60
2021/10/30 04:34:41;;;;;;;13.20;11.93;;;3.10;99.90;;;3.80;90.66;97225.41;5203232;28;20192;-61
2021/10/30 04:37:16;;;;;;;13.93;12.63;;;3.10;99.90;;;3.79;90.00;97222.78;5201875;28;20291;-60
2021/10/30 04:39:52;;;;;;;14.03;12.83;;;3.10;99.90;;;3.76;90.57;97217.50;5203538;28;20281;-59
2021/10/30 04:42:26;;;;;;;14.77;13.37;;;3.00;99.90;;;3.76;89.31;97213.31;5203500;28;20228;-61
2021/10/30 04:44:59;;;;;;;13.63;12.40;;;3.00;99.90;;;3.72;89.75;97192.75;5203176;28;20211;-59
2021/10/30 04:47:33;;;;;;;14.53;13.03;;;3.00;99.90;;;3.76;89.53;97192.25;5201791;28;20655;-60
2021/10/30 04:50:06;;;;;;;14.23;12.93;;;2.90;99.90;;;3.68;89.40;97185.75;5202273;28;20249;-61
2021/10/30 04:52:40;;;;;;;14.07;12.87;;;2.90;99.90;;;3.58;89.81;97177.50;5199616;28;20667;-61
2021/10/30 04:55:13;;;;;;;14.33;13.03;;;2.80;99.90;;;3.59;89.28;97173.31;5200226;28;20216;-61
2021/10/30 04:57:47;;;;;;;13.87;12.67;;;2.80;99.90;;;3.56;89.99;97168.94;5201183;28;20209;-60
2021/10/30 05:00:20;;;;;;;13.20;11.90;;;2.80;99.90;;;3.43;89.78;97171.31;5199937;28;20209;-60
2021/10/30 05:02:53;;;;;;;14.23;12.93;;;2.70;99.90;;;3.37;89.87;97166.69;5202142;28;20229;-58
2021/10/30 05:05:26;;;;;;;14.10;12.57;;;2.60;99.90;;;3.44;90.23;97159.59;5201167;28;20578;-59
2021/10/30 05:07:59;;;;;;;14.23;12.93;;;2.70;99.90;;;3.41;90.27;97166.94;5200730;28;20286;-59
2021/10/30 05:10:32;;;;;;;13.33;12.13;;;2.70;99.90;;;3.34;90.50;97165.59;5201500;28;20290;-57
2021/10/30 05:13:07;;;;;;;14.23;12.90;;;2.70;99.90;;;3.42;90.83;97158.59;5203047;28;20222;-59
2021/10/30 05:15:40;;;;;;;14.17;12.83;;;2.70;99.90;;;3.48;90.19;97157.38;5200054;28;20208;-59
2021/10/30 05:18:13;;;;;;;14.67;13.17;;;2.70;99.90;;;3.47;90.47;97152.25;5197309;28;20191;-59
2021/10/30 05:20:46;;;;;;;13.73;12.37;;;2.70;99.90;;;3.49;89.81;97159.16;5202698;28;20582;-59
2021/10/30 05:23:19;;;;;;;12.53;11.43;;;2.70;99.90;;;3.48;89.90;97159.91;5201327;28;20216;-59
2021/10/30 05:25:53;;;;;;;13.67;12.37;;;2.80;99.90;;;3.45;90.70;97161.34;5199206;28;20634;-59
2021/10/30 05:28:28;;;;;;;15.20;13.77;;;2.80;99.90;;;3.39;90.93;97159.25;5201578;28;20226;-58
2021/10/30 05:31:01;;;;;;;14.30;13.00;;;2.70;99.90;;;3.43;91.22;97150.25;5195501;28;20723;-59
2021/10/30 05:33:35;;;;;;;13.60;12.37;;;2.70;99.90;;;3.60;89.88;97150.69;5198845;28;20205;-58
2021/10/30 05:36:10;;;;;;;14.43;13.03;;;2.80;99.90;;;3.50;89.50;97158.38;5202246;28;20664;-59
2021/10/30 05:38:47;;;;;;;14.13;12.73;;;2.70;99.90;;;3.35;92.02;97153.09;5199957;28;20224;-57
2021/10/30 05:41:21;;;;;;;14.73;13.43;;;2.70;99.90;;;3.37;92.12;97149.03;5202235;28;20223;-58
2021/10/30 05:43:55;;;;;;;14.70;12.97;;;2.70;99.90;;;3.32;92.55;97154.50;5201124;28;20202;-59
2021/10/30 05:46:28;;;;;;;14.60;13.40;;;2.80;99.90;;;3.35;92.20;97154.75;5200118;28;20201;-59
2021/10/30 05:49:02;;;;;;;14.13;12.63;;;2.70;99.90;;;3.42;92.13;97156.94;5199705;28;20225;-59
2021/10/30 05:51:36;;;;;;;15.10;13.70;;;2.80;99.90;;;3.51;93.40;97159.25;5197102;28;20257;-58
2021/10/30 05:54:09;;;;;;;14.60;13.07;;;2.90;99.90;;;3.57;92.30;97160.56;5201920;28;20198;-60
2021/10/30 05:56:42;;;;;;;14.87;13.43;;;3.00;99.90;;;3.52;91.98;97146.75;5192194;28;20205;-57
2021/10/30 05:59:16;;;;;;;15.73;12.50;;;3.00;99.90;;;3.52;92.11;97151.81;5199649;28;20204;-59
2021/10/30 06:01:49;;;;;;;14.03;12.63;;;2.90;99.90;;;3.49;91.56;97151.59;5201374;28;20264;-58
2021/10/30 06:04:23;;;;;;;14.53;13.13;;;2.90;99.90;;;3.50;91.44;97144.88;5200530;28;20201;-59
2021/10/30 06:06:56;;;;;;;14.50;13.03;;;2.80;99.90;;;3.42;91.13;97144.31;5201357;28;20266;-59
2021/10/30 06:09:29;;;;;;;13.60;12.33;;;2.80;99.90;;;3.46;91.37;97147.94;5198467;28;20225;-59
2021/10/30 06:12:05;;;;;;;14.03;12.57;;;2.70;99.90;;;3.49;91.29;97135.53;5201473;28;20213;-60
2021/10/30 06:14:39;;;;;;;12.70;11.47;;;2.80;99.90;;;3.54;91.33;97140.13;5202859;28;20728;-59
2021/10/30 06:17:12;;;;;;;15.23;13.63;;;2.90;99.90;;;3.58;91.80;97146.31;5200483;28;20208;-60
2021/10/30 06:19:46;;;;;;;14.10;12.77;;;3.00;99.90;;;3.68;92.28;97153.78;5198979;28;20209;-60
2021/10/30 06:22:19;;;;;;;13.77;12.47;;;3.10;99.90;;;3.75;91.52;97155.06;5201185;28;20376;-59
2021/10/30 06:24:52;;;;;;;13.83;12.43;;;3.10;99.90;;;3.74;91.58;97161.78;5202556;28;20198;-59
2021/10/30 06:27:25;;;;;;;12.90;11.60;;;3.10;99.90;;;3.80;91.64;97162.22;5201482;28;20199;-57
2021/10/30 06:30:00;;;;;;;13.07;11.87;;;3.20;99.90;;;3.97;91.33;97163.41;5200389;28;20246;-58
2021/10/30 06:32:33;;;;;;;13.80;12.60;;;3.20;99.90;;;4.05;90.61;97161.44;5201158;28;20239;-59
2021/10/30 06:35:08;;;;;;;13.80;12.47;;;3.30;99.90;;;4.12;88.58;97142.50;5200575;28;20208;-58
2021/10/30 06:37:41;;;;;;;13.33;12.10;;;3.20;99.90;;;4.13;87.13;97126.59;5200350;28;20581;-59
2021/10/30 06:40:16;;;;;;;14.17;12.87;;;3.10;99.90;;;4.15;87.42;97113.28;5200731;28;20654;-59
2021/10/30 06:42:49;;;;;;;14.47;13.00;;;3.20;99.90;;;4.13;85.95;97103.84;5202378;28;20221;-59
2021/10/30 06:45:23;;;;;;;14.07;12.67;;;3.20;99.90;;;4.20;86.41;97090.81;5205360;28;20644;-59
2021/10/30 06:47:56;;;;;;;14.10;12.90;;;3.30;99.90;;;4.30;86.58;97083.09;5201074;28;20225;-58
2021/10/30 06:50:31;;;;;;;13.40;12.20;;;3.50;99.90;;;4.40;86.19;97077.88;5199185;28;20332;-57
2021/10/30 06:53:04;;;;;;;12.70;11.60;;;3.60;99.90;;;4.38;85.47;97063.38;5203242;28;20349;-58
2021/10/30 06:55:37;;;;;;;13.47;12.17;;;3.60;99.90;;;4.51;85.53;97059.25;5204041;28;20232;-59
2021/10/30 06:58:10;;;;;;;12.70;11.60;;;3.70;99.90;;;4.67;85.61;97057.75;5204618;28;20197;-59
2021/10/30 07:00:45;;;;;;;12.93;11.73;;;3.90;99.90;;;4.64;85.46;97044.91;5201452;28;20196;-60
2021/10/30 07:03:19;;;;;;;12.67;11.57;;;3.90;99.90;;;4.77;85.66;97047.44;5201058;28;20208;-58
2021/10/30 07:05:52;;;;;;;13.50;12.10;;;4.00;99.90;;;4.76;85.90;97035.56;5202404;28;20205;-58
2021/10/30 07:08:25;;;;;;;12.07;10.83;;;4.00;99.90;;;4.85;85.55;97041.22;5204168;28;20204;-59
2021/10/30 07:10:58;;;;;;;13.67;12.47;;;4.20;99.90;;;5.02;85.29;97039.81;5204380;28;20218;-58
2021/10/30 07:13:32;;;;;;;12.97;11.87;;;4.30;99.90;;;5.19;83.75;97045.97;5203747;28;20670;-59
2021/10/30 07:16:09;;;;;;;13.97;12.67;;;4.50;99.90;;;5.18;84.17;97042.56;5203395;28;20297;-58
2021/10/30 07:18:42;;;;;;;14.00;12.67;;;4.40;99.90;;;5.37;85.22;97047.13;5204086;28;20205;-58
2021/10/30 07:21:15;;;;;;;13.63;12.43;;;4.80;99.90;;;5.56;85.24;97036.50;5205714;28;20263;-59
2021/10/30 07:23:48;;;;;;;12.60;11.50;;;5.00;99.90;;;5.91;85.80;97029.34;5200557;28;20244;-59
2021/10/30 07:26:21;;;;;;;12.70;11.50;;;5.40;99.90;;;6.18;84.14;97036.13;5203242;28;20210;-57
2021/10/30 07:28:54;;;;;;;12.93;11.63;;;5.70;99.90;;;6.41;83.60;97039.13;5206108;28;20194;-59
2021/10/30 07:31:28;;;;;;;12.63;11.47;;;5.90;99.90;;;6.46;81.03;97033.53;5199268;28;20228;-57
2021/10/30 07:34:02;;;;;;;13.10;11.97;;;5.90;99.90;;;6.67;81.42;97028.00;5204103;28;20193;-57
2021/10/30 07:36:35;;;;;;;13.50;12.20;;;6.00;99.90;;;6.81;78.24;97019.53;5203771;28;20209;-59
2021/10/30 07:39:08;;;;;;;13.60;12.40;;;6.00;99.90;;;6.87;78.71;97026.63;5203895;28;20194;-58
2021/10/30 07:41:41;;;;;;;12.67;11.47;;;6.20;99.90;;;7.13;79.20;97023.91;5202261;28;20221;-58
2021/10/30 07:44:14;;;;;;;13.10;11.90;;;6.50;99.90;;;7.36;77.91;97029.41;5198010;28;20308;-57
2021/10/30 07:46:49;;;;;;;12.50;11.33;;;6.70;99.90;;;7.41;77.54;97022.88;5201061;28;20281;-58
2021/10/30 07:49:22;;;;;;;12.60;11.50;;;6.80;99.90;;;7.63;77.48;97020.72;5202573;28;20197;-58
2021/10/30 07:51:55;;;;;;;13.50;12.20;;;7.00;99.90;;;7.70;77.70;97021.97;5203212;28;20264;-59
2021/10/30 07:54:28;;;;;;;13.30;12.10;;;7.20;99.90;;;7.98;76.60;97028.50;5203079;28;20208;-59
2021/10/30 07:57:03;;;;;;;12.80;11.60;;;7.40;99.90;;;8.08;76.52;97036.72;5201454;28;20213;-59
2021/10/30 07:59:37;;;;;;;14.33;12.83;;;7.50;99.90;;;8.33;76.23;97038.03;5202771;28;20209;-58
2021/10/30 08:02:12;;;;;;;17.27;15.67;;;7.70;99.90;;;8.73;74.64;97037.56;5224085;22;20228;-59
2021/10/30 08:04:46;;;;;;;15.00;13.27;;;8.10;99.90;;;8.99;73.11;97038.88;5224668;28;20666;-56
2021/10/30 08:07:19;;;;;;;12.83;11.53;;;8.20;99.90;;;9.26;71.50;97039.34;5223824;28;20720;-57
2021/10/30 08:09:52;;;;;;;14.93;12.27;;;8.30;99.90;;;9.25;71.30;97033.38;5223763;28;20231;-61
2021/10/30 08:12:25;;;;;;;16.33;12.63;;;8.30;99.90;;;9.42;70.96;97044.38;5224741;28;20220;-58
2021/10/30 08:14:59;;;;;;;13.93;12.27;;;8.50;99.90;;;9.55;71.17;97035.63;5224504;28;20506;-62
2021/10/30 08:17:34;;;;;;;18.13;13.33;;;8.70;99.90;;;9.68;70.88;97026.88;5221422;28;20619;-58
2021/10/30 08:20:09;;;;;;;14.03;12.63;;;8.70;99.90;;;9.77;70.96;97023.88;5223889;28;20380;-59
2021/10/30 08:22:42;;;;;;;13.73;12.40;;;8.80;99.90;;;9.77;70.17;97019.66;5223256;28;20223;-58
2021/10/30 08:25:15;;;;;;;13.80;12.50;;;8.70;99.90;;;9.76;70.18;97007.72;5221871;28;20197;-57
2021/10/30 08:27:48;;;;;;;16.17;14.73;;;8.70;99.90;;;9.78;71.13;97007.75;5222752;28;20204;-56
2021/10/30 08:30:21;;;;;;;14.80;13.50;;;8.80;99.90;;;9.69;70.13;96990.34;5218607;28;20227;-53
2021/10/30 08:32:56;;;;;;;13.90;12.60;;;8.80;99.90;;;9.84;71.48;96985.97;5221474;28;20235;-60
2021/10/30 08:35:29;;;;;;;13.57;11.47;;;8.90;99.90;;;10.00;69.83;96994.31;5223492;28;20201;-57
2021/10/30 08:38:02;;;;;;;12.10;10.90;;;9.00;99.90;;;10.04;70.62;96991.06;5222985;28;20200;-60
2021/10/30 08:40:35;;;;;;;12.23;11.13;;;9.10;99.90;;;10.13;71.53;96996.63;5217913;28;20200;-60
2021/10/30 08:43:20;;;;;;;13.00;11.73;;;9.30;99.90;;;10.12;71.04;96992.31;5217753;28;20704;-58
2021/10/30 08:45:55;;;;;;;12.75;11.65;;;9.30;99.90;;;10.36;70.87;96990.88;5222028;28;20189;-62
2021/10/30 08:48:31;;;;;;;13.60;12.30;;;9.60;99.90;;;10.50;70.37;96980.34;5218082;28;20219;-62
2021/10/30 08:51:05;;;;;;;13.50;12.35;;;9.70;99.90;;;10.74;71.70;96976.28;5222763;28;20223;-61
2021/10/30 08:53:38;;;;;;;16.38;14.77;;;10.10;99.90;;;10.90;71.67;96982.94;5217298;28;20212;-61
2021/10/30 08:56:11;;;;;;;14.25;12.75;;;10.30;99.90;;;11.11;69.81;96975.25;5223242;28;20197;-61
2021/10/30 08:58:44;;;;;;;13.65;12.45;;;10.40;99.90;;;11.17;70.27;96972.94;5217792;28;20509;-55
2021/10/30 09:01:18;;;;;;;15.30;13.73;;;10.40;99.90;;;11.09;69.48;96969.19;5223047;28;20194;-61
2021/10/30 09:04:01;;;;;;;14.40;12.93;;;10.30;99.90;;;11.32;69.92;96988.03;5216811;28;20213;-55
2021/10/30 09:06:38;;;;;;;13.57;12.27;;;10.50;99.90;;;11.45;69.32;96984.28;5219893;28;20219;-63
2021/10/30 09:09:18;;;;;;;14.20;12.90;;;10.60;99.90;;;11.45;69.94;96974.06;5221790;28;20204;-56
2021/10/30 09:11:56;;;;;;;13.60;12.20;;;10.50;99.90;;;11.48;69.82;96974.16;5220900;28;20735;-55
2021/10/30 09:14:32;;;;;;;18.40;16.70;;;10.60;99.90;;;11.57;70.30;96977.09;5221592;28;20292;-57
2021/10/30 09:17:17;;;;;;;17.15;15.52;;;10.70;99.90;;;11.57;70.63;96969.41;5222647;28;20291;-60
2021/10/30 09:19:54;;;;;;;12.68;11.38;;;10.70;99.90;;;11.65;70.57;96967.16;5222008;28;20225;-59
2021/10/30 09:22:28;;;;;;;13.10;11.80;;;10.80;99.90;;;11.70;70.20;96966.50;5218830;28;20700;-60
2021/10/30 09:25:03;;;;;;;14.02;12.82;;;10.90;99.90;;;11.72;70.92;96953.75;5221061;28;20209;-60
2021/10/30 09:27:53;;;;;;;13.85;12.52;;;11.10;99.90;;;12.00;70.65;96952.25;5218966;28;20205;-55
2021/10/30 09:30:29;;;;;;;12.27;11.18;;;11.20;99.90;;;12.22;68.68;96949.66;5222175;28;20798;-65
2021/10/30 09:33:05;;;;;;;11.55;10.48;;;11.40;99.90;;;12.26;68.02;96945.50;5218903;28;20220;-59
2021/10/30 09:35:45;;;;;;;12.95;11.65;;;11.60;99.90;;;12.60;68.07;96943.31;5220897;28;20199;-58
2021/10/30 09:38:30;;;;;;;13.40;12.07;;;11.80;99.90;;;12.55;69.10;96942.25;5220735;28;20669;-59
2021/10/30 09:41:20;;;;;;;11.73;10.60;;;11.90;99.90;;;12.65;69.66;96940.91;5220296;28;20236;-59
2021/10/30 09:43:57;;;;;;;13.40;12.23;;;11.90;99.90;;;12.78;68.05;96927.66;5220469;28;20197;-57
2021/10/30 09:46:34;;;;;;;11.35;10.35;;;12.00;99.90;;;12.88;68.38;96920.25;5219200;28;20235;-67
2021/10/30 09:49:14;;;;;;;11.73;10.70;;;12.10;99.90;;;13.00;68.03;96920.69;5219931;28;20197;-64
2021/10/30 09:51:51;;;;;;;11.18;10.18;;;12.20;99.90;;;13.05;67.83;96914.88;5218795;28;20657;-64
2021/10/30 09:54:33;;;;;;;10.55;9.55;;;12.30;99.90;;;13.19;67.10;96917.00;5214012;28;20213;-61
2021/10/30 09:57:09;;;;;;;9.98;9.18;;;12.40;99.90;;;13.33;66.45;96914.88;5215000;28;20216;-61
2021/10/30 09:59:45;;;;;;;11.10;10.00;;;12.60;99.90;;;13.42;65.28;96904.91;5221346;28;20878;-62
2021/10/30 10:02:22;;;;;;;10.77;9.77;;;12.70;99.90;;;13.55;65.64;96903.59;5215184;28;20332;-56
2021/10/30 10:04:57;;;;;;;10.20;9.30;;;12.80;99.90;;;13.66;65.09;96899.66;5220831;28;20206;-60
2021/10/30 10:07:35;;;;;;;11.32;10.25;;;12.90;99.90;;;13.73;64.55;96897.31;5221654;28;20205;-56
2021/10/30 10:10:09;;;;;;;9.70;8.80;;;12.90;99.90;;;13.77;65.31;96900.84;5221426;28;20663;-61
2021/10/30 10:12:44;;;;;;;10.60;8.80;;;13.00;99.90;;;13.86;65.07;96919.06;5218330;28;20228;-59
2021/10/30 10:15:18;;;;;;;11.88;10.88;;;13.00;99.90;;;13.99;66.65;96925.41;5220627;28;20203;-58
2021/10/30 10:17:51;;;;;;;11.43;10.48;;;12.80;99.90;;;13.94;67.12;96917.59;5219843;28;20573;-55
2021/10/30 10:20:25;;;;;;;11.10;10.15;;;12.80;99.90;;;13.87;67.92;96900.25;5226533;28;20213;-60
2021/10/30 10:22:59;;;;;;;11.43;10.48;;;12.70;99.90;;;13.82;68.07;96903.50;5224024;28;20447;-56
2021/10/30 10:25:48;;;;;;;12.10;11.00;;;12.60;99.90;;;13.75;67.88;96911.03;5226199;28;20271;-61
2021/10/30 10:28:26;;;;;;;11.30;10.20;;;12.60;99.90;;;13.59;67.54;96910.53;5225709;28;20195;-54
2021/10/30 10:31:10;;;;;;;11.23;10.07;;;12.50;99.90;;;13.57;67.83;96909.66;5224557;28;20205;-55
2021/10/30 10:33:43;;;;;;;10.35;9.45;;;12.50;99.90;;;13.57;67.91;96896.81;5224221;28;20533;-62
2021/10/30 10:36:25;;;;;;;12.30;11.20;;;12.50;99.90;;;13.61;68.13;96896.06;5223947;28;20303;-62
2021/10/30 10:39:21;;;;;;;11.60;10.50;;;12.50;99.90;;;13.57;67.17;96905.38;5225251;28;20212;-59
2021/10/30 10:42:00;;;;;;;12.02;10.93;;;12.50;99.90;;;13.54;67.82;96905.28;5225450;28;20225;-56
2021/10/30 10:45:02;;;;;;;11.00;10.10;;;12.50;99.90;;;13.55;67.69;96896.75;5225900;28;20203;-61
2021/10/30 10:48:02;;;;;;;12.73;11.63;;;12.50;99.90;;;13.55;67.75;96911.28;5225102;28;20354;-57